Time;durP1;ratioP1;P1;durP2;ratioP2;P2;SDS_P1;SDS_P2;PMS_P1;PMS_P2;Temp;Humidity;BMP_temperature;BMP_pressure;BME280_temperature;BME280_humidity;BME280_pressure;Samples;Min_cycle;Max_cycle;Signal;HPM_P1;HPM_P2
2022/10/01 00:01:53;;;;;;;8.77;7.35;;;11.70;99.90;;;;;;6250281;23;20076;-78
2022/10/01 00:04:19;;;;;;;4.93;4.43;;;11.70;99.90;;;;;;6200684;23;20012;-77
2022/10/01 00:06:45;;;;;;;6.47;5.75;;;11.80;99.90;;;;;;6225994;23;20303;-78
2022/10/01 00:09:10;;;;;;;7.30;5.70;;;12.00;99.90;;;;;;6250827;23;20261;-76
2022/10/01 00:11:36;;;;;;;10.13;5.78;;;12.00;99.90;;;;;;6250592;23;20023;-75
2022/10/01 00:14:09;;;;;;;7.97;7.18;;;11.80;99.90;;;;;;6250332;23;20020;-76
2022/10/01 00:16:34;;;;;;;8.23;6.50;;;11.80;99.90;;;;;;6251026;23;20063;-76
2022/10/01 00:19:00;;;;;;;6.10;5.38;;;11.80;99.90;;;;;;6224670;23;20008;-75
2022/10/01 00:21:29;;;;;;;10.38;8.00;;;11.70;99.90;;;;;;6201367;23;20658;-75
2022/10/01 00:24:04;;;;;;;10.80;9.77;;;11.70;99.90;;;;;;6252629;23;20016;-75
2022/10/01 00:26:36;;;;;;;7.78;6.68;;;11.80;99.90;;;;;;6226643;23;20012;-75
2022/10/01 00:29:09;;;;;;;10.98;9.13;;;11.60;99.90;;;;;;6226810;23;20449;-75
2022/10/01 00:31:51;;;;;;;12.43;10.27;;;11.70;99.90;;;;;;6227690;23;20011;-75
2022/10/01 00:37:09;;;;;;;7.05;5.55;;;13.40;99.90;;;;;;6252488;23;20016;-73
2022/10/01 00:39:35;;;;;;;7.38;5.88;;;11.60;99.90;;;;;;6227045;23;20556;-75
2022/10/01 00:42:03;;;;;;;7.90;6.97;;;12.10;99.90;;;;;;6252205;23;20831;-74
2022/10/01 00:44:31;;;;;;;12.02;10.32;;;11.60;99.90;;;;;;6252727;23;20019;-76
2022/10/01 00:47:03;;;;;;;10.20;8.23;;;11.60;99.90;;;;;;6252948;23;20015;-76
2022/10/01 00:49:35;;;;;;;10.73;9.02;;;11.70;99.90;;;;;;6226885;23;20015;-75
2022/10/01 00:52:06;;;;;;;8.57;7.63;;;11.60;99.90;;;;;;6251315;23;20156;-75
2022/10/01 00:54:49;;;;;;;12.57;10.57;;;11.70;99.90;;;;;;6252603;23;20058;-75
2022/10/01 00:57:18;;;;;;;8.50;6.57;;;11.90;99.90;;;;;;6227751;23;20056;-73
2022/10/01 00:59:45;;;;;;;12.13;10.40;;;11.50;99.90;;;;;;6226242;23;20047;-74
2022/10/01 01:02:11;;;;;;;8.27;6.55;;;11.50;99.90;;;;;;6175590;23;20012;-73
2022/10/01 01:04:38;;;;;;;11.90;10.60;;;11.50;99.90;;;;;;6227345;23;20330;-74
2022/10/01 01:07:05;;;;;;;10.65;9.55;;;11.60;99.90;;;;;;6251898;23;20207;-75
2022/10/01 01:09:46;;;;;;;10.20;7.20;;;11.60;99.90;;;;;;6227024;23;20190;-74
2022/10/01 01:12:33;;;;;;;10.57;7.93;;;11.90;99.90;;;;;;6251515;23;20016;-74
2022/10/01 01:15:19;;;;;;;10.30;8.82;;;12.30;99.90;;;;;;6251659;23;20015;-75
2022/10/01 01:17:51;;;;;;;9.05;7.05;;;12.20;99.90;;;;;;6252472;23;20086;-74
2022/10/01 01:20:46;;;;;;;11.75;9.85;;;12.20;99.90;;;;;;6251855;23;20059;-76
2022/10/01 01:23:17;;;;;;;11.52;9.13;;;11.80;99.90;;;;;;6251698;23;20012;-76
2022/10/01 01:26:04;;;;;;;12.98;11.38;;;11.60;99.90;;;;;;6225746;23;20008;-75
2022/10/01 01:29:05;;;;;;;10.52;8.48;;;12.10;99.90;;;;;;6250017;23;20012;-75
2022/10/01 01:31:53;;;;;;;7.15;5.30;;;12.50;99.90;;;;;;6206985;23;20070;-75
2022/10/01 01:34:27;;;;;;;11.13;8.02;;;12.20;99.90;;;;;;6251898;23;20012;-75
2022/10/01 01:37:02;;;;;;;9.00;6.53;;;11.60;99.90;;;;;;6251889;23;20012;-75
2022/10/01 01:39:31;;;;;;;9.73;7.38;;;11.90;99.90;;;;;;6227434;23;20074;-75
2022/10/01 01:42:02;;;;;;;8.50;5.95;;;12.30;99.90;;;;;;6251292;23;20012;-77
2022/10/01 01:44:35;;;;;;;12.30;9.25;;;12.30;99.90;;;;;;6226815;23;20027;-76
2022/10/01 01:47:03;;;;;;;9.73;7.72;;;12.20;99.90;;;;;;6226128;23;20281;-75
2022/10/01 01:49:30;;;;;;;8.43;7.40;;;11.50;99.90;;;;;;6227478;23;20008;-75
2022/10/01 01:52:07;;;;;;;12.85;11.32;;;12.30;99.90;;;;;;6226015;23;20023;-74
2022/10/01 01:54:34;;;;;;;9.50;7.15;;;12.00;99.90;;;;;;6226379;23;20490;-74
2022/10/01 01:57:02;;;;;;;11.95;9.82;;;11.50;99.90;;;;;;6251711;23;20020;-75
2022/10/01 01:59:30;;;;;;;8.30;6.50;;;12.20;99.90;;;;;;6251765;23;20012;-74
2022/10/01 02:02:06;;;;;;;8.93;7.07;;;11.70;99.90;;;;;;6250746;23;20047;-75
2022/10/01 02:04:55;;;;;;;9.23;7.40;;;12.10;99.90;;;;;;6204361;23;20224;-75
2022/10/01 02:07:36;;;;;;;11.15;8.90;;;12.00;99.90;;;;;;6250883;23;20030;-76
2022/10/01 02:10:30;;;;;;;9.25;7.68;;;11.60;99.90;;;;;;6251850;23;20012;-75
2022/10/01 02:13:02;;;;;;;7.80;6.70;;;12.20;99.90;;;;;;6250494;23;20012;-77
2022/10/01 02:16:06;;;;;;;9.93;8.40;;;12.30;99.90;;;;;;6251288;23;20012;-75
2022/10/01 02:18:52;;;;;;;7.13;5.50;;;11.90;99.90;;;;;;6251819;23;20019;-75
2022/10/01 02:21:44;;;;;;;7.80;6.40;;;12.40;99.90;;;;;;6250294;23;20492;-75
2022/10/01 02:24:40;;;;;;;7.32;6.57;;;12.40;99.90;;;;;;6217152;23;20290;-75
2022/10/01 02:27:14;;;;;;;9.45;6.38;;;12.40;99.90;;;;;;6226268;23;20035;-75
2022/10/01 02:29:43;;;;;;;7.15;6.10;;;12.30;99.90;;;;;;6251583;23;20040;-75
2022/10/01 02:32:11;;;;;;;9.10;6.55;;;11.90;99.90;;;;;;6248246;23;20020;-75
2022/10/01 02:34:38;;;;;;;5.78;4.97;;;12.40;99.90;;;;;;6249576;23;20047;-75
2022/10/01 02:37:34;;;;;;;8.38;7.40;;;12.50;99.90;;;;;;6249350;23;20012;-77
2022/10/01 02:40:04;;;;;;;9.70;6.80;;;11.80;99.90;;;;;;6193673;23;20020;-76
2022/10/01 02:42:32;;;;;;;6.50;5.00;;;12.60;99.90;;;;;;6224034;23;20302;-77
2022/10/01 02:45:01;;;;;;;6.53;5.20;;;12.30;99.90;;;;;;6248662;23;20042;-78
2022/10/01 02:47:54;;;;;;;12.75;7.95;;;13.50;99.90;;;;;;6249805;23;20011;-78
2022/10/01 02:50:25;;;;;;;7.35;4.78;;;12.50;99.90;;;;;;6250462;23;20023;-76
2022/10/01 02:53:01;;;;;;;7.43;4.78;;;12.60;99.90;;;;;;6224906;23;20353;-78
2022/10/01 02:55:31;;;;;;;6.28;5.10;;;11.80;99.90;;;;;;6224236;23;20020;-77
2022/10/01 02:57:57;;;;;;;5.88;4.40;;;12.00;99.90;;;;;;6249187;23;20040;-76
2022/10/01 03:00:25;;;;;;;5.65;4.93;;;12.40;99.90;;;;;;6223419;23;20027;-75
2022/10/01 03:02:51;;;;;;;5.93;4.68;;;12.60;99.90;;;;;;6249375;23;20234;-77
2022/10/01 03:05:17;;;;;;;7.13;6.43;;;12.60;99.90;;;;;;6224070;23;20016;-76
2022/10/01 03:07:43;;;;;;;6.90;5.45;;;12.60;99.90;;;;;;6224224;23;20063;-75
2022/10/01 03:10:11;;;;;;;5.53;4.32;;;12.20;99.90;;;;;;6249730;23;20015;-76
2022/10/01 03:12:39;;;;;;;6.78;6.07;;;12.00;99.90;;;;;;6250496;23;20016;-76
2022/10/01 03:15:06;;;;;;;5.90;5.20;;;12.30;99.90;;;;;;6250992;23;20004;-77
2022/10/01 03:17:31;;;;;;;6.13;5.53;;;12.50;99.90;;;;;;6226013;23;20015;-78
2022/10/01 03:19:57;;;;;;;4.35;3.60;;;12.10;99.90;;;;;;6225570;23;20358;-79
2022/10/01 03:22:23;;;;;;;6.78;4.95;;;12.30;99.90;;;;;;6201163;23;20034;-77
2022/10/01 03:24:50;;;;;;;6.93;5.18;;;12.20;99.90;;;;;;6251265;23;20015;-77
2022/10/01 03:27:16;;;;;;;8.32;6.35;;;12.80;99.90;;;;;;6225177;23;20306;-76
2022/10/01 03:29:43;;;;;;;5.35;4.85;;;12.00;99.90;;;;;;6250197;23;20057;-76
2022/10/01 03:32:09;;;;;;;8.77;7.63;;;12.20;99.90;;;;;;6224993;23;20007;-76
2022/10/01 03:34:56;;;;;;;6.50;5.75;;;12.20;99.90;;;;;;6226469;23;20071;-77
2022/10/01 03:37:22;;;;;;;6.13;5.18;;;12.20;99.90;;;;;;6225318;23;20174;-75
2022/10/01 03:39:47;;;;;;;6.32;5.00;;;12.90;99.90;;;;;;6224861;23;20012;-76
2022/10/01 03:42:14;;;;;;;8.35;7.10;;;12.40;99.90;;;;;;6200964;23;20322;-76
2022/10/01 03:44:39;;;;;;;10.10;7.32;;;12.70;99.90;;;;;;6251003;23;20226;-76
2022/10/01 03:47:05;;;;;;;7.07;5.30;;;12.00;99.90;;;;;;6250477;23;20011;-76
2022/10/01 03:49:31;;;;;;;5.18;4.40;;;12.30;99.90;;;;;;6226568;23;20014;-76
2022/10/01 03:51:56;;;;;;;5.63;5.03;;;12.60;99.90;;;;;;6224907;23;20019;-79
2022/10/01 03:54:22;;;;;;;7.25;6.00;;;12.60;99.90;;;;;;6226467;23;20015;-77
2022/10/01 03:56:48;;;;;;;4.60;4.15;;;12.10;99.90;;;;;;6252175;23;20042;-76
2022/10/01 03:59:13;;;;;;;7.65;6.22;;;12.70;99.90;;;;;;6228217;23;20156;-77
2022/10/01 04:01:39;;;;;;;7.30;5.75;;;12.30;99.90;;;;;;6226674;23;20231;-77
2022/10/01 04:04:05;;;;;;;5.18;4.32;;;12.20;99.90;;;;;;6252895;23;20015;-74
2022/10/01 04:06:31;;;;;;;4.90;3.90;;;12.50;99.90;;;;;;6253639;23;20016;-76
2022/10/01 04:08:57;;;;;;;3.10;2.78;;;12.10;99.90;;;;;;6226994;23;20246;-75
2022/10/01 04:11:23;;;;;;;4.65;4.25;;;13.00;99.90;;;;;;6251599;23;20016;-75
2022/10/01 04:13:52;;;;;;;4.10;3.67;;;12.10;99.90;;;;;;6227707;23;20016;-75
2022/10/01 04:16:17;;;;;;;5.85;4.63;;;13.30;99.90;;;;;;6200791;23;20086;-77
2022/10/01 04:18:43;;;;;;;5.40;4.10;;;12.30;99.90;;;;;;6252341;23;20591;-76
2022/10/01 04:21:11;;;;;;;4.57;4.13;;;12.30;99.90;;;;;;6225816;23;20062;-76
2022/10/01 04:23:37;;;;;;;4.50;3.22;;;12.10;99.90;;;;;;6203460;23;20284;-77
2022/10/01 04:26:03;;;;;;;5.75;4.10;;;12.00;99.90;;;;;;6225798;23;20036;-77
2022/10/01 04:28:29;;;;;;;4.43;3.85;;;12.40;99.90;;;;;;6253320;23;20012;-76
2022/10/01 04:33:39;;;;;;;5.75;4.70;;;13.00;99.90;;;;;;6253253;23;20028;-76
2022/10/01 04:36:05;;;;;;;5.90;4.65;;;12.60;99.90;;;;;;6252911;23;20016;-77
2022/10/01 04:38:31;;;;;;;5.57;4.18;;;12.80;99.90;;;;;;6252628;23;20366;-77
2022/10/01 04:40:57;;;;;;;3.08;2.55;;;12.20;99.90;;;;;;6252721;23;20035;-75
2022/10/01 04:43:25;;;;;;;5.07;3.90;;;12.50;99.90;;;;;;6203366;23;20027;-78
2022/10/01 04:45:51;;;;;;;4.88;3.90;;;12.00;99.90;;;;;;6202689;23;20071;-76
2022/10/01 04:48:17;;;;;;;4.22;3.83;;;13.00;99.90;;;;;;6226912;23;20054;-78
2022/10/01 04:50:43;;;;;;;5.05;4.22;;;12.90;99.90;;;;;;6202511;23;20015;-76
2022/10/01 04:53:11;;;;;;;5.63;4.00;;;12.10;99.90;;;;;;6202117;23;20012;-75
2022/10/01 04:55:37;;;;;;;4.78;4.05;;;12.90;99.90;;;;;;6228123;23;20023;-77
2022/10/01 04:58:03;;;;;;;4.25;3.70;;;13.10;99.90;;;;;;6251210;23;20020;-79
2022/10/01 05:00:29;;;;;;;5.18;4.50;;;12.20;99.90;;;;;;6253035;23;20039;-77
2022/10/01 05:02:54;;;;;;;4.65;4.20;;;12.10;99.90;;;;;;6226747;23;20110;-77
2022/10/01 05:05:23;;;;;;;4.32;3.92;;;12.90;99.90;;;;;;6225897;23;20206;-76
2022/10/01 05:07:49;;;;;;;5.35;4.60;;;12.30;99.90;;;;;;6226157;23;20366;-79
2022/10/01 05:10:20;;;;;;;4.90;4.40;;;12.30;99.90;;;;;;6251540;23;20030;-76
2022/10/01 05:12:47;;;;;;;5.60;4.95;;;13.30;99.90;;;;;;6252858;23;20027;-75
2022/10/01 05:15:14;;;;;;;6.57;5.85;;;12.90;99.90;;;;;;6226125;23;20079;-76
2022/10/01 05:17:40;;;;;;;7.40;5.07;;;12.50;99.90;;;;;;6252901;23;20222;-79
2022/10/01 05:20:07;;;;;;;5.55;4.85;;;12.50;99.90;;;;;;6176684;23;20043;-77
2022/10/01 05:22:35;;;;;;;5.40;4.80;;;13.10;99.90;;;;;;6227615;23;20172;-77
2022/10/01 05:25:01;;;;;;;5.93;5.30;;;13.10;99.90;;;;;;6201911;23;20012;-76
2022/10/01 05:27:27;;;;;;;5.88;5.28;;;12.30;99.90;;;;;;6226305;23;20020;-77
2022/10/01 05:29:53;;;;;;;7.25;5.95;;;12.60;99.90;;;;;;6251902;23;20008;-74
2022/10/01 05:32:18;;;;;;;7.00;5.95;;;13.40;99.90;;;;;;6227774;23;20008;-75
2022/10/01 05:34:44;;;;;;;7.03;5.90;;;13.00;99.90;;;;;;6251232;23;20011;-75
2022/10/01 05:37:11;;;;;;;7.45;5.28;;;12.80;99.90;;;;;;6250559;23;20298;-77
2022/10/01 05:39:37;;;;;;;7.57;6.57;;;12.90;99.90;;;;;;6226652;23;20306;-77
2022/10/01 05:42:03;;;;;;;6.60;5.38;;;12.30;99.90;;;;;;6250741;23;20323;-78
2022/10/01 05:44:32;;;;;;;7.43;6.07;;;13.30;99.90;;;;;;6251193;23;20068;-76
2022/10/01 05:46:57;;;;;;;6.43;5.82;;;13.20;99.90;;;;;;6251703;23;20345;-76
2022/10/01 05:49:24;;;;;;;7.55;6.30;;;12.40;99.90;;;;;;6202195;23;20023;-78
2022/10/01 05:51:50;;;;;;;6.13;5.53;;;12.90;99.90;;;;;;6226845;23;20008;-77
2022/10/01 05:54:36;;;;;;;6.75;5.40;;;12.90;99.90;;;;;;6252452;23;20239;-76
2022/10/01 05:57:04;;;;;;;6.88;5.97;;;12.80;99.90;;;;;;6253208;23;20011;-77
2022/10/01 05:59:32;;;;;;;7.45;6.63;;;12.50;99.90;;;;;;6202623;23;20019;-77
2022/10/01 06:01:58;;;;;;;9.40;7.07;;;13.10;99.90;;;;;;6252388;23;20008;-77
2022/10/01 06:04:24;;;;;;;7.47;6.00;;;13.60;99.90;;;;;;6226083;23;20066;-75
2022/10/01 06:06:49;;;;;;;8.32;6.20;;;12.60;99.90;;;;;;6251754;23;20019;-78
2022/10/01 06:09:15;;;;;;;7.88;5.57;;;13.40;99.90;;;;;;6250964;23;20233;-77
2022/10/01 06:11:41;;;;;;;8.13;5.88;;;12.80;99.90;;;;;;6201170;23;20008;-79
2022/10/01 06:14:07;;;;;;;6.70;5.85;;;13.10;99.90;;;;;;6226107;23;20054;-77
2022/10/01 06:16:32;;;;;;;6.88;6.00;;;13.00;99.90;;;;;;6251459;23;20012;-77
2022/10/01 06:18:58;;;;;;;8.65;6.43;;;12.60;99.90;;;;;;6226282;23;20027;-75
2022/10/01 06:21:26;;;;;;;7.32;6.30;;;12.80;99.90;;;;;;6226462;23;20028;-75
2022/10/01 06:23:54;;;;;;;8.75;5.72;;;13.00;99.90;;;;;;6250752;23;20214;-75
2022/10/01 06:26:20;;;;;;;7.45;6.30;;;13.00;99.90;;;;;;6226321;23;20093;-76
2022/10/01 06:28:50;;;;;;;6.18;5.57;;;13.60;99.90;;;;;;6251875;23;20054;-77
2022/10/01 06:31:17;;;;;;;6.75;5.78;;;13.50;99.90;;;;;;6251821;23;20019;-75
2022/10/01 06:33:42;;;;;;;8.63;6.65;;;13.90;99.90;;;;;;6226798;23;20046;-75
2022/10/01 06:36:08;;;;;;;9.85;6.55;;;13.00;99.90;;;;;;6226236;23;20008;-75
2022/10/01 06:38:34;;;;;;;10.25;6.13;;;12.80;99.90;;;;;;6227135;23;20046;-75
2022/10/01 06:41:01;;;;;;;8.38;6.20;;;13.40;99.90;;;;;;6251888;23;20018;-76
2022/10/01 06:43:28;;;;;;;8.40;5.95;;;12.90;99.90;;;;;;6249564;23;20071;-76
2022/10/01 06:45:55;;;;;;;7.70;6.50;;;13.70;99.90;;;;;;6169871;23;20015;-76
2022/10/01 06:48:22;;;;;;;8.13;6.75;;;13.20;99.90;;;;;;6226066;23;20008;-77
2022/10/01 06:50:49;;;;;;;9.63;7.28;;;13.80;99.90;;;;;;6226599;23;20318;-77
2022/10/01 06:53:17;;;;;;;9.98;6.88;;;13.00;99.90;;;;;;6225450;23;20020;-75
2022/10/01 06:55:44;;;;;;;11.23;7.43;;;13.00;99.90;;;;;;6252483;23;20008;-76
2022/10/01 06:58:14;;;;;;;12.10;8.15;;;12.90;99.90;;;;;;6227533;23;20053;-76
2022/10/01 07:00:41;;;;;;;10.32;8.07;;;13.60;99.90;;;;;;6252171;23;20012;-77
2022/10/01 07:03:10;;;;;;;11.77;8.05;;;13.30;99.90;;;;;;6251363;23;20020;-76
2022/10/01 07:05:37;;;;;;;14.90;8.85;;;13.50;99.90;;;;;;6252129;23;20195;-75
2022/10/01 07:08:04;;;;;;;15.88;9.68;;;13.30;99.90;;;;;;6227109;23;20008;-77
2022/10/01 07:10:31;;;;;;;15.60;9.13;;;13.40;99.90;;;;;;6225254;23;20008;-76
2022/10/01 07:13:08;;;;;;;10.98;7.90;;;13.70;99.90;;;;;;6248549;23;20020;-78
2022/10/01 07:15:36;;;;;;;9.70;7.03;;;14.50;99.90;;;;;;6252206;23;20026;-78
2022/10/01 07:18:02;;;;;;;12.43;6.70;;;14.30;99.90;;;;;;6227417;23;20047;-78
2022/10/01 07:20:32;;;;;;;8.02;6.40;;;14.70;99.90;;;;;;6250518;23;20522;-77
2022/10/01 07:22:58;;;;;;;12.02;7.82;;;13.60;99.90;;;;;;6251988;23;20066;-78
2022/10/01 07:25:27;;;;;;;9.02;6.05;;;14.60;99.90;;;;;;6227056;23;20008;-78
2022/10/01 07:28:00;;;;;;;6.75;5.95;;;14.70;99.90;;;;;;6227498;23;20321;-77
2022/10/01 07:30:28;;;;;;;10.23;6.18;;;13.70;99.90;;;;;;6225716;23;20183;-79
2022/10/01 07:32:54;;;;;;;6.07;5.13;;;13.80;99.90;;;;;;6252535;23;20047;-78
2022/10/01 07:35:29;;;;;;;7.40;6.32;;;13.90;99.90;;;;;;6204799;23;20030;-78
2022/10/01 07:38:04;;;;;;;11.40;6.32;;;13.80;99.90;;;;;;6226917;23;20012;-78
2022/10/01 07:40:30;;;;;;;10.55;6.85;;;13.50;99.90;;;;;;6227194;23;20055;-77
2022/10/01 07:42:56;;;;;;;8.60;5.88;;;13.80;99.90;;;;;;6226416;23;20298;-78
2022/10/01 07:45:23;;;;;;;10.93;6.43;;;13.90;99.90;;;;;;6202253;23;20004;-77
2022/10/01 07:47:56;;;;;;;10.18;6.53;;;15.00;99.90;;;;;;6202812;23;20043;-78
2022/10/01 07:50:22;;;;;;;9.07;6.07;;;14.80;99.90;;;;;;6225228;23;20008;-78
2022/10/01 07:52:55;;;;;;;8.68;5.93;;;13.70;99.90;;;;;;6222002;23;20043;-78
2022/10/01 07:55:22;;;;;;;12.32;5.80;;;13.90;99.90;;;;;;6226468;23;20294;-78
2022/10/01 07:57:58;;;;;;;7.63;5.30;;;15.00;99.90;;;;;;6202479;23;20062;-77
2022/10/01 08:00:28;;;;;;;9.48;5.00;;;14.90;99.90;;;;;;6226353;23;20022;-79
2022/10/01 08:02:55;;;;;;;8.57;4.45;;;15.30;99.90;;;;;;6226295;23;20019;-76
2022/10/01 08:05:29;;;;;;;9.93;5.10;;;14.00;99.90;;;;;;6251012;23;20246;-76
2022/10/01 08:08:02;;;;;;;10.18;4.65;;;15.80;99.90;;;;;;6252083;23;20015;-77
2022/10/01 08:10:28;;;;;;;15.63;4.22;;;15.10;99.90;;;;;;6224963;23;20015;-77
2022/10/01 08:13:16;;;;;;;7.75;3.80;;;15.10;99.90;;;;;;6252223;23;20008;-77
2022/10/01 08:15:49;;;;;;;8.82;3.95;;;14.30;99.90;;;;;;6227501;23;20027;-77
2022/10/01 08:18:17;;;;;;;6.22;3.25;;;14.40;99.90;;;;;;6226841;23;20071;-78
2022/10/01 08:20:43;;;;;;;10.98;3.50;;;14.70;99.90;;;;;;6251925;23;20034;-78
2022/10/01 08:23:11;;;;;;;8.90;3.15;;;14.90;99.90;;;;;;6227077;23;20020;-78
2022/10/01 08:25:38;;;;;;;10.00;2.78;;;15.50;99.90;;;;;;6251777;23;20246;-78
2022/10/01 08:28:28;;;;;;;3.90;2.50;;;14.60;99.90;;;;;;6252078;23;20016;-77
2022/10/01 08:30:55;;;;;;;3.83;2.30;;;16.00;99.90;;;;;;6225451;23;20015;-77
2022/10/01 08:33:21;;;;;;;8.75;2.30;;;14.80;99.90;;;;;;6224702;23;20012;-75
2022/10/01 08:35:47;;;;;;;8.32;2.50;;;15.10;99.90;;;;;;6225567;23;20047;-76
2022/10/01 08:38:18;;;;;;;10.23;2.70;;;16.20;99.90;;;;;;6250170;23;20082;-75
2022/10/01 08:40:49;;;;;;;9.77;2.90;;;14.90;99.90;;;;;;6200851;23;20109;-77
2022/10/01 08:43:38;;;;;;;9.35;3.28;;;16.00;99.90;;;;;;6252798;23;20027;-76
2022/10/01 08:46:51;;;;;;;8.43;2.78;;;15.20;99.90;;;;;;6227578;23;20011;-75
2022/10/01 08:49:26;;;;;;;5.30;2.00;;;15.50;99.90;;;;;;6217420;23;20008;-77
2022/10/01 08:52:18;;;;;;;;;;;15.20;99.90;;;;;;6252412;23;20024;-76
2022/10/01 08:54:53;;;;;;;6.72;2.20;;;16.00;99.90;;;;;;6237498;23;19923;-72
2022/10/01 08:57:27;;;;;;;9.18;1.95;;;15.20;99.90;;;;;;6227479;23;20007;-76
2022/10/01 09:00:00;;;;;;;7.70;2.22;;;16.40;99.90;;;;;;6227432;23;20004;-75
2022/10/01 09:02:36;;;;;;;9.73;1.80;;;16.30;99.90;;;;;;6249795;23;20016;-76
2022/10/01 09:05:20;;;;;;;10.15;2.38;;;16.40;99.90;;;;;;6226704;23;20290;-78
2022/10/01 09:07:46;;;;;;;7.15;1.95;;;17.30;99.90;;;;;;6251554;23;20043;-77
2022/10/01 09:10:23;;;;;;;5.40;1.73;;;17.60;99.90;;;;;;6252914;23;20016;-78
2022/10/01 09:13:07;;;;;;;7.85;1.80;;;17.50;99.90;;;;;;6226824;23;20342;-77
2022/10/01 09:15:45;;;;;;;5.72;1.67;;;17.90;99.90;;;;;;6227270;23;20012;-77
2022/10/01 09:18:14;;;;;;;10.82;2.42;;;16.50;99.90;;;;;;6253310;23;20111;-76
2022/10/01 09:20:46;;;;;;;10.23;2.17;;;17.90;99.90;;;;;;6251948;23;20020;-77
2022/10/01 09:23:29;;;;;;;9.70;2.00;;;18.10;99.90;;;;;;6227413;23;20122;-76
2022/10/01 09:25:57;;;;;;;6.35;1.80;;;16.90;99.90;;;;;;6252877;23;20008;-76
2022/10/01 09:28:28;;;;;;;9.88;1.58;;;16.40;99.90;;;;;;6226285;23;20011;-78
2022/10/01 09:31:20;;;;;;;10.55;2.72;;;17.30;99.90;;;;;;6227047;23;20016;-74
2022/10/01 09:34:22;;;;;;;9.10;2.35;;;16.20;99.90;;;;;;6250901;23;20086;-77
2022/10/01 09:37:18;;;;;;;5.88;2.00;;;17.40;99.90;;;;;;6227344;23;20038;-78
2022/10/01 09:40:09;;;;;;;8.57;2.20;;;17.30;99.90;;;;;;6227802;23;20402;-76
2022/10/01 09:42:35;;;;;;;7.35;2.15;;;17.30;99.90;;;;;;6227665;23;20242;-77
2022/10/01 09:45:00;;;;;;;6.15;1.88;;;17.70;99.90;;;;;;6252768;23;20067;-78
2022/10/01 09:47:26;;;;;;;9.05;1.92;;;16.40;99.90;;;;;;6202291;23;20218;-76
2022/10/01 09:49:58;;;;;;;9.38;1.80;;;17.20;99.90;;;;;;6203137;23;20299;-78
2022/10/01 09:52:38;;;;;;;11.70;1.98;;;16.90;99.90;;;;;;6227389;23;20059;-78
2022/10/01 09:55:06;;;;;;;7.68;1.83;;;16.50;99.90;;;;;;6226088;23;20012;-76
2022/10/01 09:57:42;;;;;;;8.25;1.60;;;17.20;99.90;;;;;;6252408;23;20020;-76
2022/10/01 10:00:13;;;;;;;6.75;1.95;;;16.30;99.90;;;;;;6227701;23;20016;-78
2022/10/01 10:02:39;;;;;;;5.75;1.70;;;16.80;99.90;;;;;;6252236;23;20024;-78
2022/10/01 10:05:13;;;;;;;9.30;2.03;;;16.90;99.90;;;;;;6227494;23;20008;-79
2022/10/01 10:07:48;;;;;;;11.57;1.80;;;16.80;99.90;;;;;;6251901;23;20015;-76
2022/10/01 10:10:20;;;;;;;7.10;1.92;;;15.80;99.90;;;;;;6227823;23;20004;-76
2022/10/01 10:12:47;;;;;;;9.00;1.75;;;16.60;99.90;;;;;;6252783;23;20026;-77
2022/10/01 10:15:19;;;;;;;8.38;2.25;;;15.40;99.90;;;;;;6251404;23;20054;-81
2022/10/01 10:17:51;;;;;;;4.03;1.42;;;15.00;99.90;;;;;;6252235;23;20016;-77
2022/10/01 10:20:24;;;;;;;3.15;1.58;;;15.30;99.90;;;;;;6226771;23;20051;-71
2022/10/01 10:23:21;;;;;;;5.65;1.38;;;14.90;99.90;;;;;;6226719;23;20075;-70
2022/10/01 10:26:06;;;;;;;4.00;1.40;;;14.90;99.90;;;;;;6224950;23;20012;-65
2022/10/01 10:28:44;;;;;;;3.83;1.65;;;14.70;99.90;;;;;;6250896;23;20008;-69
2022/10/01 10:32:03;;;;;;;6.28;1.52;;;14.90;99.90;;;;;;6252183;23;20004;-77
2022/10/01 10:34:48;;;;;;;6.05;1.50;;;14.10;99.90;;;;;;6206523;23;20039;-78
2022/10/01 10:37:17;;;;;;;4.95;1.35;;;14.30;99.90;;;;;;6252073;23;20320;-78
2022/10/01 10:39:49;;;;;;;4.90;1.73;;;13.70;99.90;;;;;;6225157;23;20022;-76
2022/10/01 10:42:17;;;;;;;7.00;1.65;;;13.50;99.90;;;;;;6225995;23;20000;-69
2022/10/01 10:44:47;;;;;;;3.53;1.15;;;14.10;99.90;;;;;;6224775;23;20202;-68
2022/10/01 10:47:15;;;;;;;3.20;1.42;;;13.50;99.90;;;;;;6251212;23;20055;-69
2022/10/01 10:49:54;;;;;;;6.75;1.60;;;13.60;99.90;;;;;;6225074;23;20009;-72
2022/10/01 10:52:28;;;;;;;4.97;1.45;;;14.30;99.90;;;;;;6225689;23;20250;-70
2022/10/01 10:54:56;;;;;;;4.85;1.67;;;13.10;99.90;;;;;;6251989;23;20309;-77
2022/10/01 10:57:30;;;;;;;6.03;1.48;;;13.20;99.90;;;;;;6251942;23;20014;-77
2022/10/01 11:00:22;;;;;;;5.32;1.58;;;14.00;99.90;;;;;;6252346;23;20015;-78
2022/10/01 11:02:58;;;;;;;5.65;1.50;;;13.90;99.90;;;;;;6251928;22;20012;-77
2022/10/01 11:05:30;;;;;;;6.30;2.15;;;13.20;99.90;;;;;;6251212;23;20020;-77
2022/10/01 11:08:05;;;;;;;6.55;1.33;;;14.70;99.90;;;;;;6252460;23;20066;-77
2022/10/01 11:11:01;;;;;;;3.17;1.13;;;15.00;99.90;;;;;;6251131;23;20008;-76
2022/10/01 11:14:04;;;;;;;5.88;1.45;;;14.40;99.90;;;;;;6250297;23;20020;-77
2022/10/01 11:16:51;;;;;;;4.43;1.55;;;15.20;99.90;;;;;;6226059;23;20040;-77
2022/10/01 11:19:56;;;;;;;3.85;1.20;;;15.30;99.90;;;;;;6226567;23;20011;-76
2022/10/01 11:22:51;;;;;;;2.53;1.17;;;13.70;99.90;;;;;;6225419;23;20286;-76
2022/10/01 11:25:22;;;;;;;4.78;1.30;;;15.40;99.90;;;;;;6226531;23;20071;-76
2022/10/01 11:28:07;;;;;;;5.72;1.40;;;15.00;99.90;;;;;;6224554;23;20075;-76
2022/10/01 11:30:53;;;;;;;2.13;1.42;;;14.30;99.90;;;;;;6226835;23;20008;-76
2022/10/01 11:33:43;;;;;;;4.35;1.40;;;14.10;99.90;;;;;;6226623;23;20020;-76
2022/10/01 11:36:21;;;;;;;5.43;1.30;;;14.90;99.90;;;;;;6225692;23;20047;-76
2022/10/01 11:38:53;;;;;;;5.88;1.52;;;14.00;99.90;;;;;;6226727;23;20027;-76
2022/10/01 11:41:49;;;;;;;5.50;1.60;;;14.10;99.90;;;;;;6226206;23;20042;-76
2022/10/01 11:44:52;;;;;;;3.95;1.33;;;15.20;99.90;;;;;;6226589;23;20019;-76
2022/10/01 11:47:43;;;;;;;3.83;1.70;;;15.40;99.90;;;;;;6226398;23;20008;-77
2022/10/01 11:50:24;;;;;;;4.45;1.27;;;15.80;99.90;;;;;;6226469;23;20015;-78
2022/10/01 11:53:04;;;;;;;5.10;1.33;;;14.50;99.90;;;;;;6226004;23;20091;-79
2022/10/01 11:58:50;;;;;;;3.88;1.50;;;15.70;99.90;;;;;;6251173;23;20020;-79
2022/10/01 12:01:43;;;;;;;6.35;1.73;;;14.80;99.90;;;;;;6251402;23;20008;-77
2022/10/01 12:04:48;;;;;;;3.65;1.30;;;16.30;99.90;;;;;;6225989;23;20091;-77
2022/10/01 12:07:37;;;;;;;7.20;1.92;;;14.80;99.90;;;;;;6231295;23;20015;-78
2022/10/01 12:10:38;;;;;;;4.57;1.85;;;16.40;99.90;;;;;;6227364;23;20008;-77
2022/10/01 12:13:33;;;;;;;7.55;2.20;;;16.00;99.90;;;;;;6251655;23;20051;-78
2022/10/01 12:16:24;;;;;;;7.78;2.63;;;15.80;99.90;;;;;;6210125;23;20012;-77
2022/10/01 12:19:09;;;;;;;8.00;1.80;;;16.50;99.90;;;;;;6227992;23;20237;-77
2022/10/01 12:21:50;;;;;;;12.45;2.22;;;16.30;99.90;;;;;;6252808;23;20030;-76
2022/10/01 12:24:22;;;;;;;10.90;2.00;;;15.10;99.90;;;;;;6253819;23;20019;-77
2022/10/01 12:27:17;;;;;;;9.20;2.05;;;15.10;99.90;;;;;;6227030;23;20008;-77
2022/10/01 12:30:19;;;;;;;10.23;2.20;;;15.10;99.90;;;;;;6253166;23;20039;-79
2022/10/01 12:32:45;;;;;;;8.82;2.13;;;16.30;99.90;;;;;;6253582;23;20016;-77
2022/10/01 12:35:26;;;;;;;6.05;2.13;;;15.90;99.90;;;;;;6253780;23;20064;-78
2022/10/01 12:38:05;;;;;;;7.40;1.70;;;16.80;99.90;;;;;;6228806;23;20008;-74
2022/10/01 12:41:05;;;;;;;14.45;2.13;;;15.70;99.90;;;;;;6227953;23;20209;-80
2022/10/01 12:44:12;;;;;;;8.07;2.00;;;15.90;99.90;;;;;;6226839;23;20026;-77
2022/10/01 12:47:42;;;;;;;8.82;1.90;;;16.60;99.90;;;;;;6252552;23;20070;-76
2022/10/01 12:50:37;;;;;;;8.95;1.52;;;17.90;99.90;;;;;;6118644;23;20015;-77
2022/10/01 12:53:29;;;;;;;7.22;1.55;;;15.70;99.90;;;;;;6227196;23;20027;-77
2022/10/01 12:56:13;;;;;;;7.20;1.83;;;15.80;99.90;;;;;;6225745;23;20019;-76
2022/10/01 12:59:22;;;;;;;5.05;1.73;;;15.80;99.90;;;;;;6226659;23;20035;-78
2022/10/01 13:02:19;;;;;;;9.02;1.98;;;15.50;99.90;;;;;;6082006;23;20021;-75
2022/10/01 13:05:06;;;;;;;10.50;1.50;;;16.00;99.90;;;;;;6107576;22;20029;-77
2022/10/01 13:07:45;;;;;;;11.43;1.67;;;15.40;99.90;;;;;;6251569;23;20027;-77
2022/10/01 13:10:20;;;;;;;7.25;1.50;;;15.90;99.90;;;;;;6253080;23;20206;-77
2022/10/01 13:13:37;;;;;;;6.13;1.33;;;15.00;99.90;;;;;;6226956;23;20020;-75
2022/10/01 13:16:17;;;;;;;6.97;1.40;;;15.30;99.90;;;;;;6227712;23;20393;-78
2022/10/01 13:18:55;;;;;;;6.05;1.40;;;14.50;99.90;;;;;;6250827;23;20023;-76
2022/10/01 13:21:52;;;;;;;5.47;1.23;;;14.90;99.90;;;;;;6252085;23;20017;-77
2022/10/01 13:24:31;;;;;;;6.88;1.20;;;14.40;99.90;;;;;;6227000;23;20035;-75
2022/10/01 13:27:14;;;;;;;7.18;1.55;;;14.00;99.90;;;;;;6227387;23;20130;-75
2022/10/01 13:30:17;;;;;;;4.80;1.65;;;13.90;99.90;;;;;;6224957;23;20004;-75
2022/10/01 13:32:57;;;;;;;7.80;1.50;;;13.90;99.90;;;;;;6202426;23;20250;-76